Home   Weather   Spain   Guadalajara   Past weeks
Flag for Spain

Past Weather in Guadalajara, Guadalajara, Spain — Yesterday and Last 2 Weeks

Currently: 34 °F. Clear. (Weather station: Madrid / Torrejon, Spain). See more current weather

Past Weather in Guadalajara — Graph

°F

Guadalajara Temperature Yesterday

Maximum temperature yesterday: 55 °F (at 3:00 pm)
Minimum temperature yesterday: 32 °F (at 7:00 am)
Average temperature yesterday: 42 °F

High & Low Weather Summary for the Past Weeks

 TemperatureHumidityPressure
High68 °F (Nov 12, 3:00 pm)100% (Nov 13, 8:00 am)30.45 "Hg (Nov 13, 8:00 am)
Low32 °F (Nov 26, 7:00 am)41% (Nov 19, 2:00 pm)29.77 "Hg (Nov 17, 3:00 pm)
Average51 °F81%30.07 "Hg
* Reported Nov 12 5:00 am — Nov 27 5:00 am, Guadalajara. Weather by CustomWeather, © 2022

Note: Actual official high and low records may vary slightly from our data, if they occured in-between our weather recording intervals... More about our weather records

Guadalajara Weather History for the Previous 24 Hours

Scroll right to see more
 ConditionsComfort  
Time TempWeatherWind HumidityBarometerVisibility
5:00 am
Sun, Nov 27
34 °FClear.3 mph93%30.33 "Hg10 mi
4:30 am34 °FClear.3 mph93%30.33 "Hg10 mi
4:00 am36 °FClear.3 mph93%30.33 "Hg10 mi
3:00 am36 °FClear.6 mph93%30.33 "Hg10 mi
2:30 am36 °FClear.3 mph93%30.36 "Hg10 mi
2:00 am36 °FClear.5 mph93%30.36 "Hg10 mi
12:30 am37 °FPassing clouds.5 mph93%30.36 "HgN/A
12:00 am37 °FClear.5 mph93%30.36 "Hg10 mi
11:00 pm
Sat, Nov 26
37 °FClear.6 mph93%30.39 "Hg10 mi
10:30 pm39 °FClear.6 mph87%30.39 "Hg10 mi
10:00 pm39 °FClear.7 mph93%30.39 "Hg10 mi
9:30 pm41 °FClear.7 mph87%30.39 "Hg10 mi
9:00 pm39 °FPassing clouds.8 mph93%30.39 "HgN/A
8:30 pm41 °FClear.5 mph87%30.36 "Hg10 mi
8:00 pm41 °FClear.6 mph87%30.39 "Hg10 mi
7:30 pm43 °FClear.2 mph81%30.36 "Hg10 mi
7:00 pm45 °FClear.3 mph76%30.36 "Hg10 mi
6:30 pm46 °FClear.No wind71%30.36 "Hg10 mi
6:00 pm52 °FClear.1 mph50%30.36 "Hg10 mi
5:30 pm54 °FSunny.No wind47%30.36 "Hg10 mi
5:00 pm55 °FSunny.1 mph44%30.36 "Hg10 mi
4:30 pm55 °FSunny.1 mph47%30.36 "Hg10 mi
4:00 pm54 °FSunny.1 mph47%30.36 "Hg10 mi
3:30 pm55 °FSunny.2 mph44%30.39 "Hg10 mi
3:00 pm55 °FSunny.2 mph47%30.39 "Hg10 mi
2:00 pm54 °FPassing clouds.3 mph51%30.39 "HgN/A
1:30 pm54 °FSunny.No wind54%30.42 "Hg10 mi
1:00 pm54 °FSunny.No wind58%30.42 "Hg10 mi
12:30 pm48 °FSunny.2 mph71%30.42 "Hg10 mi
12:00 pm46 °FSunny.2 mph76%30.45 "Hg10 mi
11:30 am43 °FSunny.1 mph81%30.45 "Hg10 mi
11:00 am41 °FSunny.2 mph81%30.45 "Hg10 mi
10:30 am37 °FPassing clouds.3 mph87%30.45 "HgN/A
10:00 am36 °FSunny.1 mph93%30.45 "Hg10 mi
9:30 am36 °FPassing clouds.3 mph93%30.45 "HgN/A
9:00 am34 °FSunny.3 mph93%30.45 "Hg10 mi
8:30 am32 °FSunny.5 mph93%30.45 "Hg10 mi
8:00 am32 °FClear.7 mph100%30.45 "Hg10 mi
7:30 am32 °FClear.6 mph100%30.42 "Hg10 mi
7:00 am32 °FClear.5 mph93%30.45 "Hg10 mi
6:30 am34 °FClear.5 mph93%30.42 "Hg10 mi
6:00 am34 °FClear.5 mph93%30.42 "Hg10 mi
Weather by CustomWeather, © 2022

See weather overview